Latest Coastal Weather Observations for Milingimbi

IDD60701

Issued at 4:15 pm CST Tuesday 2 September 2014 (issued every 10 minutes, with the page automatically refreshed every 10 minutes)

About coastal observations | Map of coastal stations | Coastal observations for NT | Marine services | Other Formats
Station Details ID: 014404 Name: MILINGIMBI AIRPORT Lat: -12.09 Lon: 134.89 Height: 15.0 m
Data from the previous 72 hours. | See also: Recent months at Milingimbi
Date/Time
CST
Temp

°C
Wind Pressure Rain
since 9am
mm
Weather Cloud Vis
km
Sea
Height
m
Swell
Dir
 
Speed
knots
Gust
knots
hPa Trend Height
m
Period
s
Dir
02/04:00pm 29.4 NNE 8 13 1012.0 - 0.0 - - - - - - -
02/03:30pm 30.9 ENE 8 15 1012.0 - 0.0 - - - - - - -
02/03:00pm 30.4 ENE 10 16 1012.1 - 0.0 - - - - - - -
02/02:30pm 30.9 ENE 10 14 1012.5 - 0.0 - - - - - - -
02/02:00pm 30.4 ENE 10 17 1012.8 - 0.0 - - - - - - -
02/01:30pm 31.2 ENE 9 19 1012.9 - 0.0 - - - - - - -
02/01:00pm 31.8 E 10 17 1013.1 - 0.0 - - - - - - -
02/12:30pm 31.5 E 9 15 1013.5 - 0.0 - - - - - - -
02/12:00pm 30.6 E 9 14 1013.9 - 0.0 - - - - - - -
02/11:30am 30.1 E 8 15 1014.3 - 0.0 - - - - - - -
02/11:00am 30.2 ESE 7 12 1014.7 - 0.0 - - - - - - -
02/10:30am 29.0 ESE 7 11 1015.2 - 0.0 - - - - - - -
02/10:00am 27.6 SE 9 11 1015.5 - 0.0 - - - - - - -
02/09:30am 26.6 ESE 7 9 1015.5 - 0.0 - - - - - - -
02/09:00am 25.2 SE 5 7 1015.3 - 0.0 - - - - - - -
02/08:30am 23.3 SE 5 7 1015.5 - 0.0 - - - - - - -
02/08:00am 20.9 SE 5 6 1015.3 - 0.0 - - - - - - -
02/07:30am 18.8 SSE 4 5 1015.0 - 0.0 - - - - - - -
02/07:00am 17.5 CALM 0 0 1014.7 - 0.0 - - - - - - -
02/06:30am 17.5 S 4 5 1014.4 - 0.0 - - - - - - -
02/06:00am 18.1 SSE 3 5 1014.0 - 0.0 - - - - - - -
02/05:30am 18.3 SSE 3 4 1013.9 - 0.0 - - - - - - -
02/05:00am 18.6 SSE 3 4 1013.9 - 0.0 - - - - - - -
02/04:30am 19.0 SSE 3 4 1013.9 - 0.0 - - - - - - -
02/04:00am 19.5 E 3 5 1013.8 - 0.0 - - - - - - -
02/03:30am 20.1 ESE 2 3 1013.8 - 0.0 - - - - - - -
02/03:00am 20.7 E 4 6 1013.8 - 0.0 - - - - - - -
02/02:30am 21.3 E 5 7 1014.2 - 0.0 - - - - - - -
02/02:00am 20.8 E 3 5 1014.5 - 0.0 - - - - - - -
02/01:30am 21.3 ESE 4 5 1014.7 - 0.0 - - - - - - -
02/01:00am 22.1 ESE 5 9 1015.1 - 0.0 - - - - - - -
02/12:30am 23.0 SE 7 9 1015.3 - 0.0 - - - - - - -
02/12:00am 23.9 ESE 8 13 1015.2 - 0.0 - - - - - - -
 
Date/Time
CST
Temp

°C
Wind Pressure Rain
since 9am
mm
Weather Cloud Vis
km
Sea
Height
m
Swell
Dir
 
Speed
knots
Gust
knots
hPa Trend Height
m
Period
s
Dir
01/11:30pm 24.2 E 7 10 1015.2 - 0.0 - - - - - - -
01/11:00pm 24.2 E 6 10 1014.9 - 0.0 - - - - - - -
01/10:30pm 24.0 E 5 7 1014.9 - 0.0 - - - - - - -
01/10:00pm 24.2 E 5 7 1014.6 - 0.0 - - - - - - -
01/09:30pm 24.5 E 5 7 1014.2 - 0.0 - - - - - - -
01/09:00pm 24.5 E 5 9 1014.0 - 0.0 - - - - - - -
01/08:30pm 24.5 ENE 5 7 1013.6 - 0.0 - - - - - - -
01/08:00pm 24.7 ENE 5 9 1013.0 - 0.0 - - - - - - -
01/07:30pm 24.3 NE 4 6 1012.5 - 0.0 - - - - - - -
01/07:00pm 24.8 NE 3 5 1012.1 - 0.0 - - - - - - -
01/06:30pm 25.8 NNE 3 5 1011.7 - 0.0 - - - - - - -
01/06:00pm 27.1 NE 5 7 1011.5 - 0.0 - - - - - - -
01/05:30pm 28.3 N 5 8 1011.3 - 0.0 - - - - - - -
01/05:00pm 29.7 NE 6 12 1011.1 - 0.0 - - - - - - -
01/04:30pm 30.3 NE 7 11 1010.9 - 0.0 - - - - - - -
01/04:00pm 30.8 ENE 7 11 1010.8 - 0.0 - - - - - - -
01/03:30pm 30.4 ENE 9 14 1010.8 - 0.0 - - - - - - -
01/03:00pm 31.0 ENE 9 15 1010.9 - 0.0 - - - - - - -
01/02:30pm 30.7 ENE 8 13 1011.3 - 0.0 - - - - - - -
01/02:00pm 32.3 E 10 15 1011.8 - 0.0 - - - - - - -
01/01:30pm 32.0 E 10 15 1012.3 - 0.0 - - - - - - -
01/01:00pm 31.1 E 9 17 1012.7 - 0.0 - - - - - - -
01/12:30pm 31.4 ESE 10 15 1013.2 - 0.0 - - - - - - -
01/12:00pm 31.1 ESE 8 13 1013.6 - 0.0 - - - - - - -
01/11:30am 30.7 E 8 11 1014.1 - 0.0 - - - - - - -
01/11:00am 30.1 ESE 9 14 1014.5 - 0.0 - - - - - - -
01/10:30am 29.8 ESE 8 12 1015.0 - 0.0 - - - - - - -
01/10:00am 28.6 SE 6 12 1015.2 - 0.0 - - - - - - -
01/09:30am 26.6 S 5 7 1015.2 - 0.0 - - - - - - -
01/09:00am 24.2 S 5 7 1015.0 - 0.0 - - - - - - -
01/08:30am 22.2 S 5 7 1015.0 - 0.0 - - - - - - -
01/08:00am 20.0 SSW 5 7 1014.8 - 0.0 - - - - - - -
01/07:30am 18.9 S 4 6 1014.5 - 0.0 - - - - - - -
01/07:00am 18.6 S 2 4 1014.1 - 0.0 - - - - - - -
01/06:30am 18.6 S 4 6 1013.8 - 0.0 - - - - - - -
01/06:00am 19.0 SSE 3 4 1013.5 - 0.0 - - - - - - -
01/05:30am 19.2 S 2 3 1013.4 - 0.0 - - - - - - -
01/05:00am 19.2 SE 3 4 1013.2 - 0.0 - - - - - - -
01/04:30am 19.9 E 3 4 1012.9 - 0.0 - - - - - - -
01/04:00am 20.4 E 3 4 1012.8 - 0.0 - - - - - - -
01/03:30am 20.8 E 4 6 1012.9 - 0.0 - - - - - - -
01/03:00am 21.1 E 3 6 1013.1 - 0.0 - - - - - - -
01/02:30am 21.5 E 4 6 1013.5 - 0.0 - - - - - - -
01/02:00am 21.7 ENE 4 6 1013.6 - 0.0 - - - - - - -
01/01:30am 22.2 ENE 5 8 1013.9 - 0.0 - - - - - - -
01/01:00am 22.7 E 5 9 1013.9 - 0.0 - - - - - - -
01/12:30am 23.1 E 6 11 1014.0 - 0.0 - - - - - - -
01/12:00am 22.5 ESE 4 6 1013.9 - 0.0 - - - - - - -
 
Date/Time
CST
Temp

°C
Wind Pressure Rain
since 9am
mm
Weather Cloud Vis
km
Sea
Height
m
Swell
Dir
 
Speed
knots
Gust
knots
hPa Trend Height
m
Period
s
Dir
31/11:30pm 22.9 SE 5 7 1013.8 - 0.0 - - - - - - -
31/11:00pm 23.8 SE 6 7 1013.7 - 0.0 - - - - - - -
31/10:30pm 24.4 ESE 6 9 1013.4 - 0.0 - - - - - - -
31/10:00pm 24.5 E 6 8 1013.3 - 0.0 - - - - - - -
31/09:30pm 24.7 ENE 6 11 1013.1 - 0.0 - - - - - - -
31/09:00pm 24.7 ENE 6 10 1012.7 - 0.0 - - - - - - -
31/08:30pm 24.9 ENE 6 10 1012.4 - 0.0 - - - - - - -
31/08:00pm 25.1 NE 6 11 1012.1 - 0.0 - - - - - - -
31/07:30pm 25.0 NE 5 7 1011.7 - 0.0 - - - - - - -
31/07:00pm 25.0 NE 5 8 1011.2 - 0.0 - - - - - - -
31/06:30pm 25.3 NNE 6 9 1010.7 - 0.0 - - - - - - -
31/06:00pm 26.3 NE 7 11 1010.3 - 0.0 - - - - - - -
31/05:30pm 27.9 NNE 5 8 1010.1 - 0.0 - - - - - - -
31/05:00pm 28.2 NNE 6 9 1010.1 - 0.0 - - - - - - -
31/04:30pm 28.7 NNE 6 9 1010.0 - 0.0 - - - - - - -
31/04:00pm 28.8 NE 8 14 1010.0 - 0.0 - - - - - - -
31/03:30pm 28.7 NE 10 15 1010.0 - 0.0 - - - - - - -
31/03:00pm 29.6 ENE 10 15 1010.0 - 0.0 - - - - - - -
31/02:30pm 29.1 ENE 11 19 1010.5 - 0.0 - - - - - - -
31/02:00pm 29.0 ENE 11 18 1010.9 - 0.0 - - - - - - -
31/01:30pm 29.3 ENE 10 18 1011.3 - 0.0 - - - - - - -
31/01:00pm 29.6 ENE 9 14 1011.9 - 0.0 - - - - - - -
31/12:30pm 29.3 ENE 9 14 1012.4 - 0.0 - - - - - - -
31/12:00pm 29.0 E 8 13 1012.7 - 0.0 - - - - - - -
31/11:30am 27.3 ENE 7 11 1013.4 - 0.0 - - - - - - -
31/11:00am 27.5 ENE 6 11 1013.9 - 0.0 - - - - - - -
31/10:30am 27.8 ESE 6 9 1014.2 - 0.0 - - - - - - -
31/10:00am 26.2 ESE 7 11 1014.5 - 0.0 - - - - - - -
31/09:30am 24.9 ESE 8 11 1014.6 - 0.0 - - - - - - -
31/09:00am 23.3 SE 9 12 1014.6 - 0.0 - - - - - - -
31/08:30am 21.7 SE 8 10 1014.5 - 0.0 - - - - - - -
31/08:00am 20.5 SE 6 8 1014.3 - 0.0 - - - - - - -
31/07:30am 18.6 SSE 4 6 1014.1 - 0.0 - - - - - - -
31/07:00am 17.2 SE 4 5 1013.7 - 0.0 - - - - - - -
31/06:30am 16.7 SE 3 4 1013.4 - 0.0 - - - - - - -
31/06:00am 16.7 SE 3 4 1013.1 - 0.0 - - - - - - -
31/05:30am 17.3 SSE 4 5 1013.0 - 0.0 - - - - - - -
31/05:00am 17.7 SSE 2 3 1012.9 - 0.0 - - - - - - -
31/04:30am 18.5 ESE 2 4 1012.9 - 0.0 - - - - - - -
31/04:00am 19.4 SSE 3 5 1012.9 - 0.0 - - - - - - -
31/03:30am 20.1 ESE 3 5 1012.9 - 0.0 - - - - - - -
31/03:00am 20.9 E 5 7 1012.9 - 0.0 - - - - - - -
31/02:30am 20.7 E 5 7 1013.1 - 0.0 - - - - - - -
31/02:00am 21.2 E 5 7 1013.3 - 0.0 - - - - - - -
31/01:30am 21.4 E 6 8 1013.7 - 0.0 - - - - - - -
31/01:00am 22.1 E 8 16 1013.9 - 0.0 - - - - - - -
31/12:30am 22.6 ESE 8 13 1014.0 - 0.0 - - - - - - -
31/12:00am 22.6 ESE 7 11 1013.9 - 0.0 - - - - - - -
 
Date/Time
CST
Temp

°C
Wind Pressure Rain
since 9am
mm
Weather Cloud Vis
km
Sea
Height
m
Swell
Dir
 
Speed
knots
Gust
knots
hPa Trend Height
m
Period
s
Dir
30/11:30pm 22.4 E 5 8 1014.0 - 0.0 - - - - - - -
30/11:00pm 22.0 ESE 4 6 1014.0 - 0.0 - - - - - - -
30/10:30pm 22.6 ESE 4 5 1014.1 - 0.0 - - - - - - -
30/10:00pm 23.0 ESE 4 7 1014.0 - 0.0 - - - - - - -
30/09:30pm 23.9 ESE 5 6 1013.7 - 0.0 - - - - - - -
30/09:00pm 24.5 ESE 7 11 1013.4 - 0.0 - - - - - - -
30/08:30pm 24.3 E 6 10 1013.3 - 0.0 - - - - - - -
30/08:00pm 23.9 ENE 4 6 1013.0 - 0.0 - - - - - - -
30/07:30pm 23.9 ENE 4 5 1012.7 - 0.0 - - - - - - -
30/07:00pm 24.3 ENE 4 6 1012.4 - 0.0 - - - - - - -
30/06:30pm 25.3 NE 4 7 1011.8 - 0.0 - - - - - - -
30/06:00pm 26.7 NE 5 6 1011.4 - 0.0 - - - - - - -
30/05:30pm 27.3 NE 7 10 1011.1 - 0.0 - - - - - - -
30/05:00pm 27.9 NE 7 10 1010.9 - 0.0 - - - - - - -
30/04:30pm 28.4 NE 8 13 1010.9 - 0.0 - - - - - - -

Other Formats:

Comma delimited format used in spreadsheet applications
http://www.bom.gov.au/fwo/IDD60701/IDD60701.94140.axf

JavaScript Object Notation format (JSON) in row-major order
http://www.bom.gov.au/fwo/IDD60701/IDD60701.94140.json